sensor_id;sensor_type;location;lat;lon;timestamp;P1;durP1;ratioP1;P2;durP2;ratioP2
8327;SDS011;4201;48.754;8.864;2023-08-07T00:00:42;6.03;;;2.73;;
8327;SDS011;4201;48.754;8.864;2023-08-07T00:03:08;8.30;;;2.90;;
8327;SDS011;4201;48.754;8.864;2023-08-07T00:05:36;5.33;;;2.50;;
8327;SDS011;4201;48.754;8.864;2023-08-07T00:08:02;6.50;;;2.70;;
8327;SDS011;4201;48.754;8.864;2023-08-07T00:10:29;5.40;;;3.10;;
8327;SDS011;4201;48.754;8.864;2023-08-07T00:12:57;4.00;;;2.47;;
8327;SDS011;4201;48.754;8.864;2023-08-07T00:15:23;7.07;;;2.47;;
8327;SDS011;4201;48.754;8.864;2023-08-07T00:17:49;7.10;;;3.10;;
8327;SDS011;4201;48.754;8.864;2023-08-07T00:20:16;5.73;;;2.43;;
8327;SDS011;4201;48.754;8.864;2023-08-07T00:22:42;4.03;;;2.20;;
8327;SDS011;4201;48.754;8.864;2023-08-07T00:25:08;10.80;;;3.23;;
8327;SDS011;4201;48.754;8.864;2023-08-07T00:27:34;7.70;;;2.40;;
8327;SDS011;4201;48.754;8.864;2023-08-07T00:30:02;6.90;;;2.67;;
8327;SDS011;4201;48.754;8.864;2023-08-07T00:32:29;5.53;;;2.93;;
8327;SDS011;4201;48.754;8.864;2023-08-07T00:34:55;8.90;;;3.00;;
8327;SDS011;4201;48.754;8.864;2023-08-07T00:37:21;5.10;;;2.70;;
8327;SDS011;4201;48.754;8.864;2023-08-07T00:39:47;6.47;;;2.27;;
8327;SDS011;4201;48.754;8.864;2023-08-07T00:42:13;4.97;;;3.10;;
8327;SDS011;4201;48.754;8.864;2023-08-07T00:44:40;9.73;;;3.10;;
8327;SDS011;4201;48.754;8.864;2023-08-07T00:47:07;6.20;;;2.60;;
8327;SDS011;4201;48.754;8.864;2023-08-07T00:49:34;5.80;;;2.83;;
8327;SDS011;4201;48.754;8.864;2023-08-07T00:52:01;6.80;;;2.90;;
8327;SDS011;4201;48.754;8.864;2023-08-07T00:54:27;5.00;;;2.20;;
8327;SDS011;4201;48.754;8.864;2023-08-07T00:56:53;4.57;;;2.83;;
8327;SDS011;4201;48.754;8.864;2023-08-07T00:59:20;8.20;;;2.90;;
8327;SDS011;4201;48.754;8.864;2023-08-07T01:01:47;5.30;;;2.53;;
8327;SDS011;4201;48.754;8.864;2023-08-07T01:04:14;5.30;;;2.53;;
8327;SDS011;4201;48.754;8.864;2023-08-07T01:06:40;7.33;;;2.43;;
8327;SDS011;4201;48.754;8.864;2023-08-07T01:09:07;4.93;;;2.50;;
8327;SDS011;4201;48.754;8.864;2023-08-07T01:11:34;6.90;;;2.87;;
8327;SDS011;4201;48.754;8.864;2023-08-07T01:14:03;6.90;;;3.13;;
8327;SDS011;4201;48.754;8.864;2023-08-07T01:16:34;6.00;;;3.10;;
8327;SDS011;4201;48.754;8.864;2023-08-07T01:19:01;7.80;;;3.07;;
8327;SDS011;4201;48.754;8.864;2023-08-07T01:21:30;5.50;;;2.60;;
8327;SDS011;4201;48.754;8.864;2023-08-07T01:23:59;7.80;;;3.07;;
8327;SDS011;4201;48.754;8.864;2023-08-07T01:26:26;10.40;;;3.37;;
8327;SDS011;4201;48.754;8.864;2023-08-07T01:28:54;7.17;;;2.97;;
8327;SDS011;4201;48.754;8.864;2023-08-07T01:31:23;5.67;;;2.50;;
8327;SDS011;4201;48.754;8.864;2023-08-07T01:33:51;4.30;;;2.40;;
8327;SDS011;4201;48.754;8.864;2023-08-07T01:36:20;7.57;;;2.77;;
8327;SDS011;4201;48.754;8.864;2023-08-07T01:38:47;6.33;;;2.40;;
8327;SDS011;4201;48.754;8.864;2023-08-07T01:41:16;5.53;;;2.70;;
8327;SDS011;4201;48.754;8.864;2023-08-07T01:43:42;5.17;;;2.70;;
8327;SDS011;4201;48.754;8.864;2023-08-07T01:46:09;7.83;;;2.77;;
8327;SDS011;4201;48.754;8.864;2023-08-07T01:48:36;7.60;;;2.87;;
8327;SDS011;4201;48.754;8.864;2023-08-07T01:51:02;6.03;;;2.60;;
8327;SDS011;4201;48.754;8.864;2023-08-07T01:53:28;7.60;;;2.60;;
8327;SDS011;4201;48.754;8.864;2023-08-07T01:55:54;8.70;;;2.70;;
8327;SDS011;4201;48.754;8.864;2023-08-07T01:58:22;6.23;;;2.80;;
8327;SDS011;4201;48.754;8.864;2023-08-07T02:00:48;5.27;;;2.83;;
8327;SDS011;4201;48.754;8.864;2023-08-07T02:03:15;4.40;;;2.60;;
8327;SDS011;4201;48.754;8.864;2023-08-07T02:05:41;16.20;;;3.30;;
8327;SDS011;4201;48.754;8.864;2023-08-07T02:08:07;7.63;;;2.80;;
8327;SDS011;4201;48.754;8.864;2023-08-07T02:10:33;6.90;;;2.60;;
8327;SDS011;4201;48.754;8.864;2023-08-07T02:13:00;4.53;;;2.17;;
8327;SDS011;4201;48.754;8.864;2023-08-07T02:15:27;6.87;;;2.80;;
8327;SDS011;4201;48.754;8.864;2023-08-07T02:17:54;6.07;;;2.40;;
8327;SDS011;4201;48.754;8.864;2023-08-07T02:20:20;12.90;;;3.80;;
8327;SDS011;4201;48.754;8.864;2023-08-07T02:22:46;5.57;;;3.10;;
8327;SDS011;4201;48.754;8.864;2023-08-07T02:25:12;4.13;;;2.63;;
8327;SDS011;4201;48.754;8.864;2023-08-07T02:27:38;5.77;;;3.33;;
8327;SDS011;4201;48.754;8.864;2023-08-07T02:30:05;7.33;;;2.77;;
8327;SDS011;4201;48.754;8.864;2023-08-07T02:32:33;5.70;;;3.07;;
8327;SDS011;4201;48.754;8.864;2023-08-07T02:34:59;5.93;;;3.10;;
8327;SDS011;4201;48.754;8.864;2023-08-07T02:37:25;5.03;;;2.83;;
8327;SDS011;4201;48.754;8.864;2023-08-07T02:39:51;8.43;;;2.70;;
8327;SDS011;4201;48.754;8.864;2023-08-07T02:42:18;9.90;;;3.40;;
8327;SDS011;4201;48.754;8.864;2023-08-07T02:44:45;8.93;;;3.53;;
8327;SDS011;4201;48.754;8.864;2023-08-07T02:47:11;12.33;;;3.73;;
8327;SDS011;4201;48.754;8.864;2023-08-07T02:49:38;8.60;;;3.30;;
8327;SDS011;4201;48.754;8.864;2023-08-07T02:52:05;6.70;;;3.27;;
8327;SDS011;4201;48.754;8.864;2023-08-07T02:54:31;7.10;;;3.30;;
8327;SDS011;4201;48.754;8.864;2023-08-07T02:56:57;6.00;;;2.83;;
8327;SDS011;4201;48.754;8.864;2023-08-07T02:59:24;9.97;;;2.90;;
8327;SDS011;4201;48.754;8.864;2023-08-07T03:01:50;4.67;;;3.00;;
8327;SDS011;4201;48.754;8.864;2023-08-07T03:04:16;9.63;;;3.30;;
8327;SDS011;4201;48.754;8.864;2023-08-07T03:06:44;7.90;;;3.40;;
8327;SDS011;4201;48.754;8.864;2023-08-07T03:09:10;9.40;;;3.03;;
8327;SDS011;4201;48.754;8.864;2023-08-07T03:11:36;11.50;;;3.27;;
8327;SDS011;4201;48.754;8.864;2023-08-07T03:14:03;7.57;;;2.93;;
8327;SDS011;4201;48.754;8.864;2023-08-07T03:16:29;8.80;;;2.97;;
8327;SDS011;4201;48.754;8.864;2023-08-07T03:18:55;6.70;;;2.70;;
8327;SDS011;4201;48.754;8.864;2023-08-07T03:21:21;9.53;;;3.30;;
8327;SDS011;4201;48.754;8.864;2023-08-07T03:23:49;6.17;;;2.57;;
8327;SDS011;4201;48.754;8.864;2023-08-07T03:26:16;7.47;;;2.77;;
8327;SDS011;4201;48.754;8.864;2023-08-07T03:28:42;8.87;;;3.70;;
8327;SDS011;4201;48.754;8.864;2023-08-07T03:31:11;5.33;;;3.30;;
8327;SDS011;4201;48.754;8.864;2023-08-07T03:33:37;6.63;;;3.03;;
8327;SDS011;4201;48.754;8.864;2023-08-07T03:36:03;8.40;;;2.87;;
8327;SDS011;4201;48.754;8.864;2023-08-07T03:38:30;9.27;;;3.00;;
8327;SDS011;4201;48.754;8.864;2023-08-07T03:40:57;6.77;;;3.03;;
8327;SDS011;4201;48.754;8.864;2023-08-07T03:43:24;10.23;;;3.30;;
8327;SDS011;4201;48.754;8.864;2023-08-07T03:45:53;9.43;;;2.80;;
8327;SDS011;4201;48.754;8.864;2023-08-07T03:48:20;4.70;;;2.50;;
8327;SDS011;4201;48.754;8.864;2023-08-07T03:50:46;6.03;;;2.83;;
8327;SDS011;4201;48.754;8.864;2023-08-07T03:53:12;9.73;;;3.20;;
8327;SDS011;4201;48.754;8.864;2023-08-07T03:55:38;10.43;;;3.37;;
8327;SDS011;4201;48.754;8.864;2023-08-07T03:58:08;8.37;;;2.90;;
8327;SDS011;4201;48.754;8.864;2023-08-07T04:00:34;7.07;;;2.73;;
8327;SDS011;4201;48.754;8.864;2023-08-07T04:03:00;5.00;;;3.00;;
8327;SDS011;4201;48.754;8.864;2023-08-07T04:05:27;13.10;;;3.20;;
8327;SDS011;4201;48.754;8.864;2023-08-07T04:07:53;10.10;;;3.87;;
8327;SDS011;4201;48.754;8.864;2023-08-07T04:10:19;12.43;;;3.10;;
8327;SDS011;4201;48.754;8.864;2023-08-07T04:12:45;7.50;;;3.23;;
8327;SDS011;4201;48.754;8.864;2023-08-07T04:15:13;5.30;;;2.80;;
8327;SDS011;4201;48.754;8.864;2023-08-07T04:17:40;6.13;;;3.00;;
8327;SDS011;4201;48.754;8.864;2023-08-07T04:20:06;7.27;;;2.67;;
8327;SDS011;4201;48.754;8.864;2023-08-07T04:22:33;6.47;;;2.70;;
8327;SDS011;4201;48.754;8.864;2023-08-07T04:24:59;10.53;;;3.47;;
8327;SDS011;4201;48.754;8.864;2023-08-07T04:27:26;7.43;;;3.60;;
8327;SDS011;4201;48.754;8.864;2023-08-07T04:29:52;7.00;;;2.90;;
8327;SDS011;4201;48.754;8.864;2023-08-07T04:32:20;4.87;;;2.57;;
8327;SDS011;4201;48.754;8.864;2023-08-07T04:34:46;8.87;;;2.83;;
8327;SDS011;4201;48.754;8.864;2023-08-07T04:37:12;5.40;;;2.57;;
8327;SDS011;4201;48.754;8.864;2023-08-07T04:39:39;4.70;;;2.87;;
8327;SDS011;4201;48.754;8.864;2023-08-07T04:42:05;7.10;;;3.00;;
8327;SDS011;4201;48.754;8.864;2023-08-07T04:44:31;5.53;;;2.53;;
8327;SDS011;4201;48.754;8.864;2023-08-07T04:46:57;6.97;;;2.60;;
8327;SDS011;4201;48.754;8.864;2023-08-07T04:49:25;7.00;;;2.77;;
8327;SDS011;4201;48.754;8.864;2023-08-07T04:51:51;5.87;;;3.20;;
8327;SDS011;4201;48.754;8.864;2023-08-07T04:54:18;7.87;;;3.67;;
8327;SDS011;4201;48.754;8.864;2023-08-07T04:56:44;6.20;;;3.00;;
8327;SDS011;4201;48.754;8.864;2023-08-07T04:59:10;5.60;;;3.00;;
8327;SDS011;4201;48.754;8.864;2023-08-07T05:01:36;4.73;;;2.60;;
8327;SDS011;4201;48.754;8.864;2023-08-07T05:04:03;10.50;;;2.97;;
8327;SDS011;4201;48.754;8.864;2023-08-07T05:06:31;7.90;;;2.30;;
8327;SDS011;4201;48.754;8.864;2023-08-07T05:08:57;3.73;;;2.20;;
8327;SDS011;4201;48.754;8.864;2023-08-07T05:11:23;6.47;;;2.50;;
8327;SDS011;4201;48.754;8.864;2023-08-07T05:13:50;7.90;;;2.53;;
8327;SDS011;4201;48.754;8.864;2023-08-07T05:16:16;4.77;;;2.87;;
8327;SDS011;4201;48.754;8.864;2023-08-07T05:18:43;4.87;;;2.80;;
8327;SDS011;4201;48.754;8.864;2023-08-07T05:21:10;8.50;;;2.80;;
8327;SDS011;4201;48.754;8.864;2023-08-07T05:23:37;5.00;;;2.60;;
8327;SDS011;4201;48.754;8.864;2023-08-07T05:26:04;4.00;;;2.63;;
8327;SDS011;4201;48.754;8.864;2023-08-07T05:28:30;4.20;;;2.43;;
8327;SDS011;4201;48.754;8.864;2023-08-07T05:30:56;12.43;;;3.20;;
8327;SDS011;4201;48.754;8.864;2023-08-07T05:33:22;6.03;;;2.87;;
8327;SDS011;4201;48.754;8.864;2023-08-07T05:35:48;5.47;;;2.80;;
8327;SDS011;4201;48.754;8.864;2023-08-07T05:38:17;3.30;;;1.90;;
8327;SDS011;4201;48.754;8.864;2023-08-07T05:40:45;3.90;;;2.20;;
8327;SDS011;4201;48.754;8.864;2023-08-07T05:43:11;5.83;;;2.60;;
8327;SDS011;4201;48.754;8.864;2023-08-07T05:45:38;7.50;;;3.03;;
8327;SDS011;4201;48.754;8.864;2023-08-07T05:48:05;6.10;;;2.27;;
8327;SDS011;4201;48.754;8.864;2023-08-07T05:50:31;6.97;;;2.77;;
8327;SDS011;4201;48.754;8.864;2023-08-07T05:52:57;6.70;;;2.50;;
8327;SDS011;4201;48.754;8.864;2023-08-07T05:55:24;7.83;;;2.13;;
8327;SDS011;4201;48.754;8.864;2023-08-07T05:57:51;5.17;;;2.67;;
8327;SDS011;4201;48.754;8.864;2023-08-07T06:00:18;5.97;;;2.37;;
8327;SDS011;4201;48.754;8.864;2023-08-07T06:02:44;3.70;;;2.00;;
8327;SDS011;4201;48.754;8.864;2023-08-07T06:05:11;7.53;;;2.20;;
8327;SDS011;4201;48.754;8.864;2023-08-07T06:07:39;5.83;;;2.90;;
8327;SDS011;4201;48.754;8.864;2023-08-07T06:10:06;8.00;;;3.00;;
8327;SDS011;4201;48.754;8.864;2023-08-07T06:12:32;5.60;;;2.30;;
8327;SDS011;4201;48.754;8.864;2023-08-07T06:15:00;6.20;;;2.57;;
8327;SDS011;4201;48.754;8.864;2023-08-07T06:17:27;3.80;;;2.27;;
8327;SDS011;4201;48.754;8.864;2023-08-07T06:19:53;7.47;;;2.40;;
8327;SDS011;4201;48.754;8.864;2023-08-07T06:22:19;13.10;;;2.97;;
8327;SDS011;4201;48.754;8.864;2023-08-07T06:24:45;9.10;;;2.63;;
8327;SDS011;4201;48.754;8.864;2023-08-07T06:27:12;7.73;;;2.90;;
8327;SDS011;4201;48.754;8.864;2023-08-07T06:29:38;5.60;;;2.47;;
8327;SDS011;4201;48.754;8.864;2023-08-07T06:32:06;6.87;;;3.03;;
8327;SDS011;4201;48.754;8.864;2023-08-07T06:34:32;6.83;;;2.97;;
8327;SDS011;4201;48.754;8.864;2023-08-07T06:37:03;9.63;;;2.83;;
8327;SDS011;4201;48.754;8.864;2023-08-07T06:39:29;5.40;;;2.20;;
8327;SDS011;4201;48.754;8.864;2023-08-07T06:41:56;8.10;;;3.00;;
8327;SDS011;4201;48.754;8.864;2023-08-07T06:44:22;7.67;;;2.97;;
8327;SDS011;4201;48.754;8.864;2023-08-07T06:46:48;5.07;;;2.83;;
8327;SDS011;4201;48.754;8.864;2023-08-07T06:49:16;6.23;;;2.17;;
8327;SDS011;4201;48.754;8.864;2023-08-07T06:51:42;4.57;;;2.30;;
8327;SDS011;4201;48.754;8.864;2023-08-07T06:54:08;17.30;;;3.63;;
8327;SDS011;4201;48.754;8.864;2023-08-07T06:56:35;4.07;;;2.37;;
8327;SDS011;4201;48.754;8.864;2023-08-07T06:59:03;4.23;;;2.10;;
8327;SDS011;4201;48.754;8.864;2023-08-07T07:01:29;6.13;;;2.27;;
8327;SDS011;4201;48.754;8.864;2023-08-07T07:03:57;8.43;;;2.53;;
8327;SDS011;4201;48.754;8.864;2023-08-07T07:06:24;3.33;;;2.23;;
8327;SDS011;4201;48.754;8.864;2023-08-07T07:08:51;5.00;;;1.90;;
8327;SDS011;4201;48.754;8.864;2023-08-07T07:11:19;6.73;;;2.40;;
8327;SDS011;4201;48.754;8.864;2023-08-07T07:13:45;4.20;;;2.03;;
8327;SDS011;4201;48.754;8.864;2023-08-07T07:16:12;4.80;;;2.33;;
8327;SDS011;4201;48.754;8.864;2023-08-07T07:18:38;4.13;;;2.20;;
8327;SDS011;4201;48.754;8.864;2023-08-07T07:21:04;3.43;;;1.90;;
8327;SDS011;4201;48.754;8.864;2023-08-07T07:23:32;3.70;;;2.03;;
8327;SDS011;4201;48.754;8.864;2023-08-07T07:25:58;4.30;;;2.37;;
8327;SDS011;4201;48.754;8.864;2023-08-07T07:28:24;3.50;;;2.13;;
8327;SDS011;4201;48.754;8.864;2023-08-07T07:30:51;5.57;;;2.10;;
8327;SDS011;4201;48.754;8.864;2023-08-07T07:33:17;9.83;;;2.10;;
8327;SDS011;4201;48.754;8.864;2023-08-07T07:35:43;5.10;;;2.17;;
8327;SDS011;4201;48.754;8.864;2023-08-07T07:38:10;4.67;;;1.87;;
8327;SDS011;4201;48.754;8.864;2023-08-07T07:40:37;4.87;;;2.20;;
8327;SDS011;4201;48.754;8.864;2023-08-07T07:43:04;5.67;;;2.27;;
8327;SDS011;4201;48.754;8.864;2023-08-07T07:45:30;5.03;;;2.40;;
8327;SDS011;4201;48.754;8.864;2023-08-07T07:47:58;3.40;;;1.87;;
8327;SDS011;4201;48.754;8.864;2023-08-07T07:50:24;3.50;;;1.90;;
8327;SDS011;4201;48.754;8.864;2023-08-07T07:52:51;4.80;;;2.20;;
8327;SDS011;4201;48.754;8.864;2023-08-07T07:55:17;3.97;;;1.90;;
8327;SDS011;4201;48.754;8.864;2023-08-07T07:57:45;3.33;;;1.67;;
8327;SDS011;4201;48.754;8.864;2023-08-07T08:00:11;3.33;;;1.93;;
8327;SDS011;4201;48.754;8.864;2023-08-07T08:02:38;5.10;;;2.30;;
8327;SDS011;4201;48.754;8.864;2023-08-07T08:05:06;5.80;;;2.20;;
8327;SDS011;4201;48.754;8.864;2023-08-07T08:07:32;5.40;;;1.70;;
8327;SDS011;4201;48.754;8.864;2023-08-07T08:09:59;4.80;;;1.63;;
8327;SDS011;4201;48.754;8.864;2023-08-07T08:12:25;2.73;;;1.50;;
8327;SDS011;4201;48.754;8.864;2023-08-07T08:14:53;4.33;;;2.07;;
8327;SDS011;4201;48.754;8.864;2023-08-07T08:17:19;8.03;;;2.67;;
8327;SDS011;4201;48.754;8.864;2023-08-07T08:19:46;5.00;;;2.23;;
8327;SDS011;4201;48.754;8.864;2023-08-07T08:22:12;4.50;;;2.20;;
8327;SDS011;4201;48.754;8.864;2023-08-07T08:24:38;4.07;;;1.70;;
8327;SDS011;4201;48.754;8.864;2023-08-07T08:27:05;2.97;;;1.60;;
8327;SDS011;4201;48.754;8.864;2023-08-07T08:29:31;9.00;;;2.50;;
8327;SDS011;4201;48.754;8.864;2023-08-07T08:31:59;4.23;;;2.20;;
8327;SDS011;4201;48.754;8.864;2023-08-07T08:34:25;3.27;;;1.60;;
8327;SDS011;4201;48.754;8.864;2023-08-07T08:36:52;3.90;;;1.67;;
8327;SDS011;4201;48.754;8.864;2023-08-07T08:39:18;2.87;;;1.77;;
8327;SDS011;4201;48.754;8.864;2023-08-07T08:41:45;6.70;;;2.10;;
8327;SDS011;4201;48.754;8.864;2023-08-07T08:44:12;6.30;;;1.77;;
8327;SDS011;4201;48.754;8.864;2023-08-07T08:46:38;5.97;;;2.03;;
8327;SDS011;4201;48.754;8.864;2023-08-07T08:49:07;3.13;;;1.53;;
8327;SDS011;4201;48.754;8.864;2023-08-07T08:51:34;5.27;;;1.87;;
8327;SDS011;4201;48.754;8.864;2023-08-07T08:54:01;3.73;;;1.93;;
8327;SDS011;4201;48.754;8.864;2023-08-07T08:56:27;4.00;;;1.80;;
8327;SDS011;4201;48.754;8.864;2023-08-07T08:58:54;4.77;;;2.17;;
8327;SDS011;4201;48.754;8.864;2023-08-07T09:01:21;4.73;;;1.60;;
8327;SDS011;4201;48.754;8.864;2023-08-07T09:03:47;3.83;;;1.40;;
8327;SDS011;4201;48.754;8.864;2023-08-07T09:06:15;5.07;;;1.50;;
8327;SDS011;4201;48.754;8.864;2023-08-07T09:08:42;4.20;;;1.70;;
8327;SDS011;4201;48.754;8.864;2023-08-07T09:11:08;14.13;;;1.73;;
8327;SDS011;4201;48.754;8.864;2023-08-07T09:13:36;3.47;;;1.50;;
8327;SDS011;4201;48.754;8.864;2023-08-07T09:16:03;7.43;;;2.00;;
8327;SDS011;4201;48.754;8.864;2023-08-07T09:18:30;6.03;;;1.97;;
8327;SDS011;4201;48.754;8.864;2023-08-07T09:20:56;5.60;;;1.70;;
8327;SDS011;4201;48.754;8.864;2023-08-07T09:23:25;3.13;;;1.90;;
8327;SDS011;4201;48.754;8.864;2023-08-07T09:25:58;3.53;;;1.53;;
8327;SDS011;4201;48.754;8.864;2023-08-07T09:28:24;3.07;;;1.50;;
8327;SDS011;4201;48.754;8.864;2023-08-07T09:30:52;4.23;;;1.57;;
8327;SDS011;4201;48.754;8.864;2023-08-07T09:33:22;4.20;;;1.67;;
8327;SDS011;4201;48.754;8.864;2023-08-07T09:35:50;3.87;;;1.87;;
8327;SDS011;4201;48.754;8.864;2023-08-07T09:38:16;4.33;;;2.27;;
8327;SDS011;4201;48.754;8.864;2023-08-07T09:40:43;6.70;;;1.77;;
8327;SDS011;4201;48.754;8.864;2023-08-07T09:43:10;4.10;;;1.60;;
8327;SDS011;4201;48.754;8.864;2023-08-07T09:45:46;3.00;;;1.60;;
8327;SDS011;4201;48.754;8.864;2023-08-07T09:48:12;2.67;;;1.63;;
8327;SDS011;4201;48.754;8.864;2023-08-07T09:50:40;4.80;;;1.90;;
8327;SDS011;4201;48.754;8.864;2023-08-07T09:53:06;4.07;;;2.00;;
8327;SDS011;4201;48.754;8.864;2023-08-07T09:55:32;5.03;;;1.80;;
8327;SDS011;4201;48.754;8.864;2023-08-07T09:58:01;2.87;;;1.63;;
8327;SDS011;4201;48.754;8.864;2023-08-07T10:00:27;4.23;;;1.57;;
8327;SDS011;4201;48.754;8.864;2023-08-07T10:02:58;4.80;;;1.93;;
8327;SDS011;4201;48.754;8.864;2023-08-07T10:05:25;3.70;;;1.63;;
8327;SDS011;4201;48.754;8.864;2023-08-07T10:07:51;3.53;;;1.87;;
8327;SDS011;4201;48.754;8.864;2023-08-07T10:10:19;4.13;;;1.70;;
8327;SDS011;4201;48.754;8.864;2023-08-07T10:12:46;3.73;;;1.87;;
8327;SDS011;4201;48.754;8.864;2023-08-07T10:15:14;3.10;;;1.63;;
8327;SDS011;4201;48.754;8.864;2023-08-07T10:17:41;2.83;;;1.70;;
8327;SDS011;4201;48.754;8.864;2023-08-07T10:20:08;3.47;;;1.83;;
8327;SDS011;4201;48.754;8.864;2023-08-07T10:22:35;4.07;;;2.07;;
8327;SDS011;4201;48.754;8.864;2023-08-07T10:25:04;5.77;;;2.97;;
8327;SDS011;4201;48.754;8.864;2023-08-07T10:27:33;6.33;;;2.53;;
8327;SDS011;4201;48.754;8.864;2023-08-07T10:30:00;5.53;;;1.97;;
8327;SDS011;4201;48.754;8.864;2023-08-07T10:32:29;4.00;;;2.00;;
8327;SDS011;4201;48.754;8.864;2023-08-07T10:34:56;9.30;;;2.10;;
8327;SDS011;4201;48.754;8.864;2023-08-07T10:37:32;7.07;;;2.27;;
8327;SDS011;4201;48.754;8.864;2023-08-07T10:40:02;4.43;;;1.70;;
8327;SDS011;4201;48.754;8.864;2023-08-07T10:42:29;4.80;;;1.90;;
8327;SDS011;4201;48.754;8.864;2023-08-07T10:45:00;6.10;;;2.40;;
8327;SDS011;4201;48.754;8.864;2023-08-07T10:47:33;3.17;;;1.90;;
8327;SDS011;4201;48.754;8.864;2023-08-07T10:49:59;6.47;;;2.40;;
8327;SDS011;4201;48.754;8.864;2023-08-07T10:52:26;4.70;;;1.80;;
8327;SDS011;4201;48.754;8.864;2023-08-07T10:54:53;3.80;;;1.97;;
8327;SDS011;4201;48.754;8.864;2023-08-07T10:57:20;4.27;;;2.23;;
8327;SDS011;4201;48.754;8.864;2023-08-07T10:59:49;5.07;;;2.13;;
8327;SDS011;4201;48.754;8.864;2023-08-07T11:02:21;3.00;;;2.03;;
8327;SDS011;4201;48.754;8.864;2023-08-07T11:04:50;2.60;;;1.47;;
8327;SDS011;4201;48.754;8.864;2023-08-07T11:07:22;3.33;;;2.07;;
8327;SDS011;4201;48.754;8.864;2023-08-07T11:09:48;3.30;;;1.80;;
8327;SDS011;4201;48.754;8.864;2023-08-07T11:12:15;2.80;;;1.90;;
8327;SDS011;4201;48.754;8.864;2023-08-07T11:14:41;2.90;;;1.70;;
8327;SDS011;4201;48.754;8.864;2023-08-07T11:17:08;14.93;;;3.70;;
8327;SDS011;4201;48.754;8.864;2023-08-07T11:19:34;6.80;;;2.10;;
8327;SDS011;4201;48.754;8.864;2023-08-07T11:22:03;4.57;;;2.40;;
8327;SDS011;4201;48.754;8.864;2023-08-07T11:24:30;5.80;;;2.20;;
8327;SDS011;4201;48.754;8.864;2023-08-07T11:26:56;6.20;;;2.60;;
8327;SDS011;4201;48.754;8.864;2023-08-07T11:29:23;4.13;;;2.33;;
8327;SDS011;4201;48.754;8.864;2023-08-07T11:31:50;6.07;;;2.83;;
8327;SDS011;4201;48.754;8.864;2023-08-07T11:34:16;4.27;;;2.03;;
8327;SDS011;4201;48.754;8.864;2023-08-07T11:36:43;5.60;;;2.50;;
8327;SDS011;4201;48.754;8.864;2023-08-07T11:39:10;3.63;;;2.20;;
8327;SDS011;4201;48.754;8.864;2023-08-07T11:41:37;4.43;;;2.20;;
8327;SDS011;4201;48.754;8.864;2023-08-07T11:44:03;4.13;;;2.47;;
8327;SDS011;4201;48.754;8.864;2023-08-07T11:46:30;3.70;;;2.20;;
8327;SDS011;4201;48.754;8.864;2023-08-07T11:48:56;3.97;;;2.33;;
8327;SDS011;4201;48.754;8.864;2023-08-07T11:51:22;4.50;;;2.40;;
8327;SDS011;4201;48.754;8.864;2023-08-07T11:53:49;3.00;;;1.80;;
8327;SDS011;4201;48.754;8.864;2023-08-07T11:56:18;5.03;;;2.73;;
8327;SDS011;4201;48.754;8.864;2023-08-07T11:58:45;6.53;;;3.53;;
8327;SDS011;4201;48.754;8.864;2023-08-07T12:01:12;5.33;;;3.20;;
8327;SDS011;4201;48.754;8.864;2023-08-07T12:03:41;5.57;;;2.43;;
8327;SDS011;4201;48.754;8.864;2023-08-07T12:06:08;4.53;;;2.00;;
8327;SDS011;4201;48.754;8.864;2023-08-07T12:08:34;4.47;;;2.40;;
8327;SDS011;4201;48.754;8.864;2023-08-07T12:11:01;4.70;;;2.20;;
8327;SDS011;4201;48.754;8.864;2023-08-07T12:13:29;3.70;;;2.40;;
8327;SDS011;4201;48.754;8.864;2023-08-07T12:15:56;5.23;;;2.63;;
8327;SDS011;4201;48.754;8.864;2023-08-07T12:18:23;2.90;;;1.70;;
8327;SDS011;4201;48.754;8.864;2023-08-07T12:20:50;6.83;;;2.30;;
8327;SDS011;4201;48.754;8.864;2023-08-07T12:23:17;4.00;;;2.13;;
8327;SDS011;4201;48.754;8.864;2023-08-07T12:25:43;3.80;;;2.10;;
8327;SDS011;4201;48.754;8.864;2023-08-07T12:28:10;5.70;;;2.60;;
8327;SDS011;4201;48.754;8.864;2023-08-07T12:30:37;4.17;;;2.30;;
8327;SDS011;4201;48.754;8.864;2023-08-07T12:33:04;5.70;;;2.87;;
8327;SDS011;4201;48.754;8.864;2023-08-07T12:35:32;3.50;;;2.00;;
8327;SDS011;4201;48.754;8.864;2023-08-07T12:37:59;3.60;;;2.27;;
8327;SDS011;4201;48.754;8.864;2023-08-07T12:40:25;5.80;;;2.30;;
8327;SDS011;4201;48.754;8.864;2023-08-07T12:42:52;4.87;;;2.73;;
8327;SDS011;4201;48.754;8.864;2023-08-07T12:45:18;4.50;;;2.10;;
8327;SDS011;4201;48.754;8.864;2023-08-07T12:47:46;5.47;;;2.67;;
8327;SDS011;4201;48.754;8.864;2023-08-07T12:50:12;5.73;;;2.57;;
8327;SDS011;4201;48.754;8.864;2023-08-07T12:52:38;3.60;;;2.13;;
8327;SDS011;4201;48.754;8.864;2023-08-07T12:55:05;6.90;;;2.37;;
8327;SDS011;4201;48.754;8.864;2023-08-07T12:57:32;3.93;;;2.00;;
8327;SDS011;4201;48.754;8.864;2023-08-07T12:59:58;4.30;;;2.20;;
8327;SDS011;4201;48.754;8.864;2023-08-07T13:02:24;4.23;;;2.20;;
8327;SDS011;4201;48.754;8.864;2023-08-07T13:04:52;6.70;;;2.47;;
8327;SDS011;4201;48.754;8.864;2023-08-07T13:07:19;4.10;;;2.27;;
8327;SDS011;4201;48.754;8.864;2023-08-07T13:09:45;5.10;;;2.57;;
8327;SDS011;4201;48.754;8.864;2023-08-07T13:12:11;4.13;;;2.50;;
8327;SDS011;4201;48.754;8.864;2023-08-07T13:14:37;4.50;;;2.30;;
8327;SDS011;4201;48.754;8.864;2023-08-07T13:17:04;6.93;;;2.40;;
8327;SDS011;4201;48.754;8.864;2023-08-07T13:19:30;9.27;;;2.67;;
8327;SDS011;4201;48.754;8.864;2023-08-07T13:21:58;3.50;;;2.10;;
8327;SDS011;4201;48.754;8.864;2023-08-07T13:24:24;3.20;;;2.00;;
8327;SDS011;4201;48.754;8.864;2023-08-07T13:26:50;6.23;;;1.70;;
8327;SDS011;4201;48.754;8.864;2023-08-07T13:29:16;3.90;;;1.83;;
8327;SDS011;4201;48.754;8.864;2023-08-07T13:31:43;4.23;;;2.60;;
8327;SDS011;4201;48.754;8.864;2023-08-07T13:34:11;4.50;;;2.00;;
8327;SDS011;4201;48.754;8.864;2023-08-07T13:36:38;4.00;;;2.07;;
8327;SDS011;4201;48.754;8.864;2023-08-07T13:39:05;4.60;;;2.37;;
8327;SDS011;4201;48.754;8.864;2023-08-07T13:41:32;4.00;;;2.30;;
8327;SDS011;4201;48.754;8.864;2023-08-07T13:43:58;4.63;;;2.30;;
8327;SDS011;4201;48.754;8.864;2023-08-07T13:46:25;5.20;;;2.17;;
8327;SDS011;4201;48.754;8.864;2023-08-07T13:48:51;3.00;;;2.13;;
8327;SDS011;4201;48.754;8.864;2023-08-07T13:51:17;3.20;;;1.87;;
8327;SDS011;4201;48.754;8.864;2023-08-07T13:53:44;4.93;;;1.93;;
8327;SDS011;4201;48.754;8.864;2023-08-07T13:56:11;3.40;;;2.00;;
8327;SDS011;4201;48.754;8.864;2023-08-07T13:58:38;4.07;;;2.20;;
8327;SDS011;4201;48.754;8.864;2023-08-07T14:01:05;3.23;;;2.27;;
8327;SDS011;4201;48.754;8.864;2023-08-07T14:03:31;7.07;;;2.07;;
8327;SDS011;4201;48.754;8.864;2023-08-07T14:05:58;14.50;;;2.23;;
8327;SDS011;4201;48.754;8.864;2023-08-07T14:08:24;4.10;;;2.57;;
8327;SDS011;4201;48.754;8.864;2023-08-07T14:10:50;3.40;;;2.30;;
8327;SDS011;4201;48.754;8.864;2023-08-07T14:13:18;3.73;;;1.97;;
8327;SDS011;4201;48.754;8.864;2023-08-07T14:15:44;4.73;;;2.27;;
8327;SDS011;4201;48.754;8.864;2023-08-07T14:18:10;7.20;;;2.50;;
8327;SDS011;4201;48.754;8.864;2023-08-07T14:20:39;3.10;;;1.93;;
8327;SDS011;4201;48.754;8.864;2023-08-07T14:23:06;3.97;;;2.10;;
8327;SDS011;4201;48.754;8.864;2023-08-07T14:25:32;3.97;;;2.43;;
8327;SDS011;4201;48.754;8.864;2023-08-07T14:27:58;3.90;;;2.30;;
8327;SDS011;4201;48.754;8.864;2023-08-07T14:30:26;4.00;;;2.63;;
8327;SDS011;4201;48.754;8.864;2023-08-07T14:32:52;4.60;;;2.70;;
8327;SDS011;4201;48.754;8.864;2023-08-07T14:37:44;3.27;;;2.27;;
8327;SDS011;4201;48.754;8.864;2023-08-07T14:40:12;4.17;;;2.43;;
8327;SDS011;4201;48.754;8.864;2023-08-07T14:42:39;4.13;;;2.40;;
8327;SDS011;4201;48.754;8.864;2023-08-07T14:45:05;5.53;;;2.30;;
8327;SDS011;4201;48.754;8.864;2023-08-07T14:47:33;4.60;;;2.43;;
8327;SDS011;4201;48.754;8.864;2023-08-07T14:49:59;4.90;;;2.10;;
8327;SDS011;4201;48.754;8.864;2023-08-07T14:52:26;5.67;;;2.37;;
8327;SDS011;4201;48.754;8.864;2023-08-07T14:54:52;6.10;;;2.67;;
8327;SDS011;4201;48.754;8.864;2023-08-07T14:57:21;4.93;;;2.37;;
8327;SDS011;4201;48.754;8.864;2023-08-07T14:59:47;5.43;;;2.63;;
8327;SDS011;4201;48.754;8.864;2023-08-07T15:02:13;4.77;;;2.10;;
8327;SDS011;4201;48.754;8.864;2023-08-07T15:04:41;3.60;;;1.83;;
8327;SDS011;4201;48.754;8.864;2023-08-07T15:07:07;4.77;;;2.07;;
8327;SDS011;4201;48.754;8.864;2023-08-07T15:09:33;3.20;;;2.20;;
8327;SDS011;4201;48.754;8.864;2023-08-07T15:12:00;5.97;;;2.47;;
8327;SDS011;4201;48.754;8.864;2023-08-07T15:14:26;5.20;;;2.23;;